createdAt,value
2019-01-20T00:00:49.827Z,12.73
2019-01-20T00:05:45.614Z,13.03
2019-01-20T00:10:41.325Z,11.40
2019-01-20T00:15:37.302Z,12.90
2019-01-20T00:20:33.033Z,13.37
2019-01-20T00:25:28.740Z,11.10
2019-01-20T00:30:24.451Z,12.57
2019-01-20T00:35:20.161Z,9.97
2019-01-20T00:40:15.985Z,10.03
2019-01-20T00:45:13.077Z,10.90
2019-01-20T00:50:09.742Z,10.73
2019-01-20T00:55:07.226Z,13.70
2019-01-20T01:00:05.521Z,14.23
2019-01-20T01:05:01.346Z,11.53
2019-01-20T01:09:57.057Z,11.93
2019-01-20T01:14:52.775Z,11.53
2019-01-20T01:19:48.456Z,13.27
2019-01-20T01:24:44.201Z,11.80
2019-01-20T01:29:39.903Z,9.67
2019-01-20T01:34:35.632Z,11.00
2019-01-20T01:39:31.321Z,11.43
2019-01-20T01:44:27.030Z,16.27
2019-01-20T01:49:22.702Z,13.53
2019-01-20T01:54:18.437Z,14.63
2019-01-20T01:59:14.142Z,9.23
2019-01-20T02:04:09.830Z,9.90
2019-01-20T02:09:05.924Z,12.57
2019-01-20T02:14:01.714Z,10.77
2019-01-20T02:18:57.423Z,11.33
2019-01-20T02:23:53.233Z,8.67
2019-01-20T02:28:48.952Z,10.70
2019-01-20T02:33:44.651Z,11.63
2019-01-20T02:38:40.360Z,10.10
2019-01-20T02:43:36.280Z,10.60
2019-01-20T02:48:32.237Z,10.77
2019-01-20T02:53:27.937Z,10.80
2019-01-20T02:58:23.661Z,11.90
2019-01-20T03:03:19.371Z,10.53
2019-01-20T03:08:15.076Z,10.37
2019-01-20T03:13:11.020Z,13.57
2019-01-20T03:18:06.847Z,9.57
2019-01-20T03:23:02.572Z,9.77
2019-01-20T03:27:58.289Z,12.37
2019-01-20T03:32:54.039Z,9.37
2019-01-20T03:37:49.852Z,10.33
2019-01-20T03:42:45.568Z,9.60
2019-01-20T03:47:41.379Z,10.23
2019-01-20T03:52:37.183Z,10.10
2019-01-20T03:57:33.142Z,9.53
2019-01-20T04:02:28.853Z,10.80
2019-01-20T04:07:24.670Z,10.43
2019-01-20T04:12:21.066Z,9.17
2019-01-20T04:17:16.856Z,8.97
2019-01-20T04:22:12.561Z,9.23
2019-01-20T04:27:08.329Z,10.13
2019-01-20T04:32:04.059Z,11.17
2019-01-20T04:36:59.763Z,11.53
2019-01-20T04:41:55.467Z,12.43
2019-01-20T04:46:51.193Z,13.10
2019-01-20T04:51:46.985Z,10.37
2019-01-20T04:56:42.707Z,9.13
2019-01-20T05:01:38.454Z,12.53
2019-01-20T05:06:34.230Z,13.73
2019-01-20T05:11:29.953Z,11.83
2019-01-20T05:16:25.626Z,11.10
2019-01-20T05:21:21.326Z,10.07
2019-01-20T05:26:17.012Z,8.07
2019-01-20T05:31:12.743Z,10.33
2019-01-20T05:36:08.712Z,11.63
2019-01-20T05:41:04.409Z,10.00
2019-01-20T05:46:00.124Z,14.97
2019-01-20T05:50:56.087Z,8.77
2019-01-20T05:55:51.811Z,8.23
2019-01-20T06:00:47.633Z,7.63
2019-01-20T06:05:43.348Z,11.23
2019-01-20T06:10:39.067Z,8.77
2019-01-20T06:15:34.813Z,11.63
2019-01-20T06:20:30.515Z,10.33
2019-01-20T06:25:26.238Z,10.67
2019-01-20T06:30:23.849Z,9.93
2019-01-20T06:35:19.947Z,10.73
2019-01-20T06:40:15.665Z,9.60
2019-01-20T06:45:12.281Z,8.87
2019-01-20T06:50:09.271Z,10.40
2019-01-20T06:55:05.949Z,15.07
2019-01-20T07:00:01.888Z,9.60
2019-01-20T07:04:57.718Z,10.27
2019-01-20T07:09:53.415Z,12.03
2019-01-20T07:14:49.148Z,11.37
2019-01-20T07:19:44.849Z,14.73
2019-01-20T07:24:40.815Z,9.33
2019-01-20T07:29:36.539Z,9.93
2019-01-20T07:34:32.283Z,12.40
2019-01-20T07:39:27.967Z,12.63
2019-01-20T07:44:23.793Z,11.57
2019-01-20T07:49:19.516Z,9.97
2019-01-20T07:54:15.211Z,9.83
2019-01-20T07:59:10.937Z,14.20
2019-01-20T08:04:06.597Z,10.37
2019-01-20T08:09:04.519Z,10.70
2019-01-20T08:14:00.231Z,12.13
2019-01-20T08:18:55.923Z,17.40
2019-01-20T08:23:51.648Z,17.93
2019-01-20T08:28:47.347Z,25.40
2019-01-20T08:33:43.095Z,16.70
2019-01-20T08:38:38.828Z,17.50
2019-01-20T08:43:34.734Z,18.83
2019-01-20T08:48:30.451Z,20.10
2019-01-20T08:53:26.184Z,23.70
2019-01-20T08:58:21.873Z,20.10
2019-01-20T09:03:17.609Z,16.97
2019-01-20T09:08:13.426Z,20.77
2019-01-20T09:13:09.673Z,20.87
2019-01-20T09:18:05.383Z,20.23
2019-01-20T09:23:01.119Z,20.97
2019-01-20T09:27:56.899Z,23.80
2019-01-20T09:32:52.999Z,30.27
2019-01-20T09:37:48.723Z,24.70
2019-01-20T09:42:44.660Z,23.70
2019-01-20T09:47:40.841Z,26.97
2019-01-20T09:52:36.633Z,20.10
2019-01-20T09:57:32.534Z,19.90
2019-01-20T10:02:28.458Z,26.50
2019-01-20T10:07:24.185Z,23.00
2019-01-20T10:12:19.877Z,23.97
2019-01-20T10:17:15.598Z,25.93
2019-01-20T10:22:11.310Z,22.50
2019-01-20T10:27:07.044Z,26.53
2019-01-20T10:32:02.895Z,24.30
2019-01-20T10:36:59.783Z,24.80
2019-01-20T10:41:55.502Z,26.33
2019-01-20T10:46:51.199Z,23.07
2019-01-20T10:51:47.014Z,24.87
2019-01-20T10:56:42.702Z,23.53
2019-01-20T11:01:38.423Z,23.53
2019-01-20T11:06:34.152Z,22.00
2019-01-20T11:11:30.136Z,21.23
2019-01-20T11:16:25.859Z,22.50
2019-01-20T11:21:21.576Z,26.03
2019-01-20T11:26:17.299Z,21.20
2019-01-20T11:31:13.003Z,28.23
2019-01-20T11:36:08.797Z,22.20
2019-01-20T11:41:04.639Z,22.43
2019-01-20T11:46:00.600Z,27.70
2019-01-20T11:50:56.353Z,42.97
2019-01-20T11:55:53.418Z,24.07
2019-01-20T12:00:49.341Z,25.13
2019-01-20T12:05:45.150Z,24.87
2019-01-20T12:10:40.850Z,28.27
2019-01-20T12:15:36.645Z,21.30
2019-01-20T12:20:32.341Z,22.57
2019-01-20T12:25:28.058Z,22.73
2019-01-20T12:30:31.451Z,24.23
2019-01-20T12:35:27.193Z,21.37
2019-01-20T12:40:24.312Z,23.80
2019-01-20T12:45:19.977Z,23.37
2019-01-20T12:50:16.493Z,22.27
2019-01-20T12:55:13.403Z,20.10
2019-01-20T13:00:10.835Z,18.90
2019-01-20T13:05:06.677Z,19.13
2019-01-20T13:10:03.955Z,22.20
2019-01-20T13:14:59.693Z,20.50
2019-01-20T13:19:55.400Z,20.83
2019-01-20T13:24:51.128Z,19.33
2019-01-20T13:29:47.723Z,20.87
2019-01-20T13:34:43.511Z,18.40
2019-01-20T13:39:39.587Z,21.03
2019-01-20T13:44:35.294Z,18.53
2019-01-20T13:49:31.006Z,16.77
2019-01-20T13:54:26.720Z,20.10
2019-01-20T13:59:22.483Z,17.33
2019-01-20T14:04:18.161Z,18.13
2019-01-20T14:09:13.887Z,20.10
2019-01-20T14:14:09.697Z,17.37
2019-01-20T14:19:05.417Z,21.97
2019-01-20T14:24:01.135Z,18.77
2019-01-20T14:28:56.853Z,17.67
2019-01-20T14:33:52.685Z,21.83
2019-01-20T14:38:48.537Z,18.53
2019-01-20T14:43:44.271Z,19.23
2019-01-20T14:48:39.982Z,17.77
2019-01-20T14:53:35.662Z,18.03
2019-01-20T14:58:31.411Z,20.03
2019-01-20T15:03:27.398Z,19.90
2019-01-20T15:08:23.427Z,21.73
2019-01-20T15:13:19.347Z,16.97
2019-01-20T15:18:15.035Z,20.63
2019-01-20T15:23:10.877Z,18.00
2019-01-20T15:28:06.668Z,17.53
2019-01-20T15:33:03.192Z,16.17
2019-01-20T15:37:59.039Z,18.43
2019-01-20T15:42:55.125Z,17.40
2019-01-20T15:47:52.432Z,18.00
2019-01-20T15:52:48.742Z,26.27
2019-01-20T15:57:44.420Z,23.53
2019-01-20T16:02:40.176Z,20.87
2019-01-20T16:07:36.307Z,28.43
2019-01-20T16:12:32.020Z,31.87
2019-01-20T16:17:27.718Z,18.43
2019-01-20T16:22:23.435Z,18.60
2019-01-20T16:27:19.255Z,18.37
2019-01-20T16:32:14.929Z,20.60
2019-01-20T16:37:10.680Z,21.87
2019-01-20T16:42:06.424Z,18.80
2019-01-20T16:47:02.177Z,19.57
2019-01-20T16:51:58.005Z,17.27
2019-01-20T16:56:53.727Z,21.33
2019-01-20T17:01:49.446Z,20.20
2019-01-20T17:06:45.436Z,20.93
2019-01-20T17:11:41.544Z,23.20
2019-01-20T17:16:37.299Z,22.57
2019-01-20T17:21:33.017Z,25.07
2019-01-20T17:26:28.721Z,23.13
2019-01-20T17:31:24.463Z,23.97
2019-01-20T17:36:20.171Z,20.73
2019-01-20T17:41:20.871Z,27.00
2019-01-20T17:46:16.604Z,19.97
2019-01-20T17:51:12.321Z,25.37
2019-01-20T17:56:08.293Z,38.20
2019-01-20T18:01:04.218Z,23.17
2019-01-20T18:06:00.032Z,22.40
2019-01-20T18:10:55.740Z,19.87
2019-01-20T18:15:54.607Z,19.17
2019-01-20T18:20:49.126Z,17.97
2019-01-20T18:25:44.829Z,17.70
2019-01-20T18:30:40.796Z,15.83
2019-01-20T18:35:36.471Z,16.00
2019-01-20T18:40:32.197Z,16.50
2019-01-20T18:45:28.885Z,17.60
2019-01-20T18:50:25.617Z,14.60
2019-01-20T18:55:21.313Z,18.20
2019-01-20T19:00:30.688Z,17.50
2019-01-20T19:05:26.506Z,15.40
2019-01-20T19:10:22.295Z,13.47
2019-01-20T19:15:18.813Z,14.97
2019-01-20T19:20:15.566Z,22.50
2019-01-20T19:25:11.458Z,17.43
2019-01-20T19:30:09.059Z,16.10
2019-01-20T19:35:06.370Z,16.60
2019-01-20T19:40:03.784Z,15.07
2019-01-20T19:44:59.480Z,16.90
2019-01-20T19:49:55.292Z,16.20
2019-01-20T19:54:51.177Z,18.27
2019-01-20T19:59:47.159Z,19.70
2019-01-20T20:04:45.602Z,22.43
2019-01-20T20:09:41.406Z,19.20
2019-01-20T20:14:37.210Z,18.07
2019-01-20T20:19:33.018Z,31.17
2019-01-20T20:24:30.385Z,17.13
2019-01-20T20:29:26.139Z,15.87
2019-01-20T20:34:22.068Z,12.77
2019-01-20T20:39:17.790Z,15.80
2019-01-20T20:44:13.639Z,15.10
2019-01-20T20:49:09.566Z,14.20
2019-01-20T20:54:05.373Z,17.80
2019-01-20T20:59:01.496Z,14.40
2019-01-20T21:03:57.278Z,16.33
2019-01-20T21:08:53.036Z,16.70
2019-01-20T21:13:48.941Z,15.70
2019-01-20T21:18:44.654Z,14.13
2019-01-20T21:23:40.387Z,16.60
2019-01-20T21:28:36.095Z,14.57
2019-01-20T21:33:31.817Z,14.23
2019-01-20T21:38:27.564Z,15.13
2019-01-20T21:43:23.406Z,15.73
2019-01-20T21:48:19.087Z,14.43
2019-01-20T21:53:14.781Z,16.30
2019-01-20T21:58:10.511Z,16.27
2019-01-20T22:03:06.240Z,14.93
2019-01-20T22:08:02.003Z,15.93
2019-01-20T22:12:57.737Z,16.00
2019-01-20T22:17:53.433Z,15.57
2019-01-20T22:22:49.452Z,16.07
2019-01-20T22:27:45.167Z,15.30
2019-01-20T22:32:40.883Z,17.30
2019-01-20T22:37:36.688Z,15.30
2019-01-20T22:42:32.443Z,14.97
2019-01-20T22:47:28.145Z,18.33
2019-01-20T22:52:24.018Z,16.20
2019-01-20T22:57:20.003Z,16.20
2019-01-20T23:02:15.787Z,20.77
2019-01-20T23:07:11.578Z,15.47
2019-01-20T23:12:07.343Z,16.90
2019-01-20T23:17:07.801Z,16.20
2019-01-20T23:22:00.770Z,14.47
2019-01-20T23:26:56.449Z,17.10
2019-01-20T23:31:52.167Z,15.83
2019-01-20T23:36:47.911Z,15.83
2019-01-20T23:41:43.636Z,16.03
2019-01-20T23:46:39.339Z,14.70
2019-01-20T23:51:35.038Z,17.07
2019-01-20T23:56:30.728Z,15.37
